Time;durP1;ratioP1;P1;durP2;ratioP2;P2;SDS_P1;SDS_P2;PMS_P1;PMS_P2;Temp;Humidity;BMP_temperature;BMP_pressure;BME280_temperature;BME280_humidity;BME280_pressure;Samples;Min_cycle;Max_cycle;Signal;HPM_P1;HPM_P2
2023/01/16 00:00:21;;;;;;;2.88;2.67;;;7.40;99.90;;;;;;5039186;28;20240;-77
2023/01/16 00:02:48;;;;;;;9.95;6.35;;;7.50;99.90;;;;;;5039195;28;20628;-78
2023/01/16 00:05:15;;;;;;;8.10;4.60;;;7.50;99.90;;;;;;5041789;28;20616;-79
2023/01/16 00:07:44;;;;;;;5.88;1.63;;;7.40;99.90;;;;;;5049500;28;20664;-76
2023/01/16 00:10:12;;;;;;;1.38;1.27;;;7.40;99.90;;;;;;5047398;28;20308;-77
2023/01/16 00:12:40;;;;;;;2.15;1.05;;;7.40;99.90;;;;;;5026393;28;20225;-79
2023/01/16 00:15:08;;;;;;;1.55;1.00;;;7.50;99.90;;;;;;5055722;28;20685;-77
2023/01/16 00:17:35;;;;;;;1.75;1.10;;;7.50;99.90;;;;;;5043291;28;20232;-80
2023/01/16 00:20:02;;;;;;;3.45;1.30;;;7.50;99.90;;;;;;5056627;28;20228;-79
2023/01/16 00:22:29;;;;;;;2.25;1.20;;;7.50;99.90;;;;;;5048997;28;20236;-77
2023/01/16 00:24:56;;;;;;;2.10;1.30;;;7.50;99.90;;;;;;5042955;28;20232;-77
2023/01/16 00:27:23;;;;;;;2.45;1.10;;;7.60;99.90;;;;;;5042455;28;20512;-79
2023/01/16 00:29:56;;;;;;;1.77;1.45;;;7.60;99.90;;;;;;5056439;28;20236;-77
2023/01/16 00:32:23;;;;;;;4.05;1.20;;;7.70;99.90;;;;;;5043091;28;20217;-79
2023/01/16 00:34:51;;;;;;;4.80;1.83;;;7.70;99.90;;;;;;5048861;28;20239;-80
2023/01/16 00:37:18;;;;;;;2.38;1.20;;;7.80;99.90;;;;;;5040774;28;20228;-78
2023/01/16 00:39:45;;;;;;;1.60;1.05;;;7.80;99.90;;;;;;5043737;28;20661;-79
2023/01/16 00:42:14;;;;;;;2.75;1.20;;;7.80;99.90;;;;;;5054904;28;20683;-79
2023/01/16 00:44:42;;;;;;;5.63;2.97;;;7.70;99.90;;;;;;5043830;28;20231;-77
2023/01/16 00:47:10;;;;;;;2.80;1.90;;;7.70;99.90;;;;;;5054099;28;20307;-77
2023/01/16 00:49:38;;;;;;;1.00;0.90;;;7.80;99.90;;;;;;5044803;28;20228;-77
2023/01/16 00:52:06;;;;;;;3.45;2.28;;;7.80;99.90;;;;;;5042727;28;20283;-77
2023/01/16 00:54:33;;;;;;;2.22;1.50;;;7.70;99.90;;;;;;5038475;28;20255;-77
2023/01/16 00:57:00;;;;;;;2.03;1.00;;;7.80;99.90;;;;;;5050740;28;20442;-80
2023/01/16 00:59:29;;;;;;;5.97;1.55;;;7.80;99.90;;;;;;5047827;28;20229;-79
2023/01/16 01:01:56;;;;;;;0.90;0.90;;;7.90;99.90;;;;;;5050539;28;20221;-77
2023/01/16 01:04:24;;;;;;;4.38;1.17;;;7.90;99.90;;;;;;5032207;28;20222;-79
2023/01/16 01:06:52;;;;;;;2.53;1.15;;;7.90;99.90;;;;;;5061522;28;20308;-79
2023/01/16 01:09:19;;;;;;;1.15;1.05;;;7.90;99.90;;;;;;5044364;28;20284;-77
2023/01/16 01:11:46;;;;;;;1.58;1.40;;;7.90;99.90;;;;;;5040322;28;20312;-77
2023/01/16 01:14:13;;;;;;;1.30;0.90;;;7.90;99.90;;;;;;5055310;28;20221;-77
2023/01/16 01:16:40;;;;;;;4.03;1.63;;;7.90;99.90;;;;;;5053619;28;20566;-77
2023/01/16 01:19:07;;;;;;;2.17;1.00;;;7.90;99.90;;;;;;5055820;28;20224;-77
2023/01/16 01:21:36;;;;;;;1.60;0.85;;;7.80;99.90;;;;;;5055616;28;20598;-79
2023/01/16 01:24:03;;;;;;;1.85;1.13;;;7.80;99.90;;;;;;5056068;28;20601;-76
2023/01/16 01:26:30;;;;;;;0.98;0.75;;;7.90;99.90;;;;;;5046776;28;20282;-77
2023/01/16 01:28:57;;;;;;;1.58;1.20;;;7.90;99.90;;;;;;5044505;28;20631;-77
2023/01/16 01:31:24;;;;;;;3.35;1.10;;;7.90;99.90;;;;;;5054412;28;20282;-80
2023/01/16 01:33:51;;;;;;;1.10;1.00;;;7.80;99.90;;;;;;5056200;28;20289;-79
2023/01/16 01:36:20;;;;;;;2.05;1.00;;;7.80;99.90;;;;;;5055306;28;20288;-77
2023/01/16 01:38:50;;;;;;;4.60;1.05;;;7.80;99.90;;;;;;5056458;28;20605;-79
2023/01/16 01:41:18;;;;;;;1.40;1.00;;;7.80;99.90;;;;;;5056140;28;20221;-79
2023/01/16 01:43:48;;;;;;;1.50;1.10;;;7.80;99.90;;;;;;5056282;28;20263;-76
2023/01/16 01:46:22;;;;;;;1.95;1.00;;;7.70;99.90;;;;;;5059594;28;20236;-79
2023/01/16 01:48:54;;;;;;;1.00;0.90;;;7.70;99.90;;;;;;5047129;28;20221;-79
2023/01/16 01:51:24;;;;;;;1.58;0.95;;;7.70;99.90;;;;;;5040544;28;20690;-79
2023/01/16 01:53:59;;;;;;;1.60;1.10;;;7.70;99.90;;;;;;5051877;28;20225;-79
2023/01/16 01:56:30;;;;;;;1.17;0.90;;;7.70;99.90;;;;;;5054954;28;20220;-79
2023/01/16 01:59:01;;;;;;;2.45;1.27;;;7.70;99.90;;;;;;5055724;28;20232;-78
2023/01/16 02:01:31;;;;;;;1.60;1.00;;;7.70;99.90;;;;;;5056678;28;20256;-79
2023/01/16 02:04:01;;;;;;;1.73;1.10;;;7.60;99.90;;;;;;5057298;28;20225;-79
2023/01/16 02:06:34;;;;;;;2.20;1.00;;;7.70;99.90;;;;;;5059694;28;20232;-78
2023/01/16 02:09:02;;;;;;;1.02;0.88;;;7.60;99.90;;;;;;5060776;28;21170;-79
2023/01/16 02:11:35;;;;;;;1.50;1.40;;;7.60;99.90;;;;;;5063935;28;20224;-79
2023/01/16 02:14:07;;;;;;;2.17;1.05;;;7.50;99.90;;;;;;5050926;28;20221;-78
2023/01/16 02:19:28;;;;;;;1.00;0.90;;;7.60;99.90;;;;;;5048052;28;20619;-78
2023/01/16 02:22:23;;;;;;;1.38;0.98;;;7.60;99.90;;;;;;5045637;28;20281;-78
2023/01/16 02:25:15;;;;;;;2.50;1.10;;;7.60;99.90;;;;;;5037004;28;20216;-79
2023/01/16 02:28:11;;;;;;;1.88;0.90;;;7.70;99.90;;;;;;5040300;28;20228;-77
2023/01/16 02:31:03;;;;;;;0.95;0.80;;;7.60;99.90;;;;;;5043257;28;20686;-76
2023/01/16 02:33:39;;;;;;;3.50;1.15;;;7.60;99.90;;;;;;5042822;28;20675;-76
2023/01/16 02:36:12;;;;;;;1.10;1.00;;;7.60;99.90;;;;;;5034612;28;20231;-76
2023/01/16 02:38:49;;;;;;;5.25;1.35;;;7.60;99.90;;;;;;5033590;28;20256;-76
2023/01/16 02:41:23;;;;;;;0.85;0.85;;;7.60;99.90;;;;;;5034561;28;20225;-76
2023/01/16 02:43:57;;;;;;;1.83;0.93;;;7.60;99.90;;;;;;5048615;28;20642;-78
2023/01/16 02:46:32;;;;;;;2.28;0.90;;;7.60;99.90;;;;;;5053882;28;20721;-76
2023/01/16 02:49:07;;;;;;;2.97;1.42;;;7.60;99.90;;;;;;5050740;28;20259;-76
2023/01/16 02:51:43;;;;;;;1.30;1.00;;;7.60;99.90;;;;;;5033680;28;20229;-78
2023/01/16 02:54:18;;;;;;;3.22;0.90;;;7.60;99.90;;;;;;5033162;28;20232;-76
2023/01/16 02:56:50;;;;;;;2.08;1.30;;;7.60;99.90;;;;;;5023722;28;20293;-78
2023/01/16 02:59:20;;;;;;;3.00;1.10;;;7.60;99.90;;;;;;5031257;28;20423;-76
2023/01/16 03:01:50;;;;;;;4.40;1.00;;;7.60;99.90;;;;;;5038593;28;20229;-76
2023/01/16 03:04:47;;;;;;;1.80;1.15;;;7.60;99.90;;;;;;5041824;28;20226;-77
2023/01/16 03:07:40;;;;;;;1.75;0.95;;;7.70;99.90;;;;;;5041347;28;20235;-76
2023/01/16 03:10:38;;;;;;;2.65;1.35;;;7.70;99.90;;;;;;5039601;28;20675;-77
2023/01/16 03:13:19;;;;;;;1.63;1.50;;;7.70;99.90;;;;;;5049140;28;20221;-79
2023/01/16 03:15:56;;;;;;;1.95;1.05;;;7.60;99.90;;;;;;5048578;28;20720;-79
2023/01/16 03:18:34;;;;;;;3.60;1.50;;;7.70;99.90;;;;;;5043703;28;20224;-78
2023/01/16 03:21:25;;;;;;;1.38;0.90;;;7.60;99.90;;;;;;5114380;27;20567;-77
2023/01/16 03:23:54;;;;;;;2.17;1.02;;;7.60;99.90;;;;;;5127363;27;20288;-79
2023/01/16 03:26:28;;;;;;;2.10;1.25;;;7.60;99.90;;;;;;5130974;27;20238;-77
2023/01/16 03:29:04;;;;;;;1.88;1.27;;;7.60;99.90;;;;;;5131584;27;20218;-77
2023/01/16 03:31:40;;;;;;;1.13;1.00;;;7.50;99.90;;;;;;5110016;28;20233;-78
2023/01/16 03:34:14;;;;;;;2.08;0.98;;;7.60;99.90;;;;;;5110239;28;20676;-78
2023/01/16 03:36:49;;;;;;;2.00;1.27;;;7.50;99.90;;;;;;5110438;28;20219;-77
2023/01/16 03:39:23;;;;;;;1.50;1.17;;;7.40;99.90;;;;;;5110168;28;20318;-80
2023/01/16 03:41:54;;;;;;;1.20;1.00;;;7.40;99.90;;;;;;5110868;28;20233;-79
2023/01/16 03:44:26;;;;;;;2.60;1.13;;;7.40;99.90;;;;;;5110426;28;20223;-80
2023/01/16 03:46:53;;;;;;;5.32;1.20;;;7.30;99.90;;;;;;5111039;28;20231;-80
2023/01/16 03:49:25;;;;;;;2.25;1.02;;;7.30;99.90;;;;;;5109801;28;20230;-80
2023/01/16 03:51:58;;;;;;;1.88;0.93;;;7.30;99.90;;;;;;5110640;28;20668;-79
2023/01/16 03:54:33;;;;;;;5.95;1.90;;;7.20;99.90;;;;;;5110019;28;20246;-80
2023/01/16 03:57:08;;;;;;;2.42;1.00;;;7.20;99.90;;;;;;5110395;28;20229;-80
2023/01/16 03:59:36;;;;;;;2.75;1.38;;;7.10;99.90;;;;;;5110123;28;20229;-80
2023/01/16 04:02:11;;;;;;;2.85;1.10;;;7.10;99.90;;;;;;5110176;28;20681;-80
2023/01/16 04:04:47;;;;;;;1.33;1.10;;;7.20;99.90;;;;;;5110032;28;20302;-80
2023/01/16 04:07:21;;;;;;;2.25;1.27;;;7.20;99.90;;;;;;5110311;28;20229;-79
2023/01/16 04:09:56;;;;;;;1.00;0.90;;;7.20;99.90;;;;;;5110819;28;20227;-77
2023/01/16 04:12:28;;;;;;;1.40;1.08;;;7.20;99.90;;;;;;5109329;28;20720;-80
2023/01/16 04:14:59;;;;;;;1.80;1.30;;;7.10;99.90;;;;;;5109761;28;20234;-77
2023/01/16 04:17:27;;;;;;;2.85;1.58;;;7.10;99.90;;;;;;5109291;28;20280;-78
2023/01/16 04:19:54;;;;;;;1.65;1.33;;;7.10;99.90;;;;;;5109841;28;20617;-80
2023/01/16 04:22:25;;;;;;;2.08;1.20;;;7.10;99.90;;;;;;5109265;28;20227;-79
2023/01/16 04:24:56;;;;;;;1.55;1.00;;;7.20;99.90;;;;;;5112105;28;20230;-80
2023/01/16 04:27:23;;;;;;;1.10;1.00;;;7.10;99.90;;;;;;5111352;28;20303;-77
2023/01/16 04:29:51;;;;;;;1.70;1.30;;;7.10;99.90;;;;;;5109142;28;20652;-77
2023/01/16 04:32:18;;;;;;;1.30;1.20;;;7.10;99.90;;;;;;5097416;28;20223;-77
2023/01/16 04:34:46;;;;;;;3.67;1.70;;;7.10;99.90;;;;;;5095152;28;20550;-79
2023/01/16 04:37:16;;;;;;;2.40;1.40;;;7.10;99.90;;;;;;5096452;28;20219;-76
2023/01/16 04:39:47;;;;;;;3.80;1.50;;;7.10;99.90;;;;;;5094884;28;20603;-77
2023/01/16 04:42:15;;;;;;;2.15;1.23;;;7.10;99.90;;;;;;5095855;28;20223;-79
2023/01/16 04:44:42;;;;;;;2.70;1.10;;;7.10;99.90;;;;;;5095353;28;20265;-79
2023/01/16 04:47:11;;;;;;;2.58;1.65;;;7.10;99.90;;;;;;5096088;28;20666;-79
2023/01/16 04:49:44;;;;;;;2.65;1.20;;;7.10;99.90;;;;;;5095396;28;20227;-76
2023/01/16 04:52:13;;;;;;;4.60;1.40;;;7.10;99.90;;;;;;5096106;28;20255;-79
2023/01/16 04:54:41;;;;;;;4.20;1.50;;;7.00;99.90;;;;;;5096156;28;20561;-79
2023/01/16 04:57:09;;;;;;;1.70;1.50;;;7.00;99.90;;;;;;5096199;28;20711;-76
2023/01/16 04:59:36;;;;;;;8.65;1.00;;;7.00;99.90;;;;;;5094370;28;20592;-78
2023/01/16 05:02:03;;;;;;;1.98;1.40;;;7.00;99.90;;;;;;5095241;28;20265;-79
2023/01/16 05:04:30;;;;;;;2.85;1.27;;;6.90;99.90;;;;;;5095591;28;20227;-80
2023/01/16 05:06:57;;;;;;;1.70;1.33;;;6.90;99.90;;;;;;5095517;28;20215;-78
2023/01/16 05:09:25;;;;;;;1.95;1.38;;;6.90;99.90;;;;;;5095469;28;20296;-77
2023/01/16 05:11:52;;;;;;;2.58;1.23;;;6.90;99.90;;;;;;5095090;28;20251;-80
2023/01/16 05:14:20;;;;;;;1.80;1.23;;;6.90;99.90;;;;;;5095068;28;20227;-80
2023/01/16 05:16:48;;;;;;;5.97;2.13;;;6.80;99.90;;;;;;5095212;28;20663;-79
2023/01/16 05:19:15;;;;;;;2.10;1.00;;;6.80;99.90;;;;;;5095451;28;20308;-76
2023/01/16 05:21:42;;;;;;;1.63;1.02;;;6.80;99.90;;;;;;5094597;28;20238;-78
2023/01/16 05:24:11;;;;;;;2.75;1.48;;;6.80;99.90;;;;;;5095261;28;20274;-76
2023/01/16 05:26:38;;;;;;;2.28;1.60;;;6.80;99.90;;;;;;5094664;28;20296;-76
2023/01/16 05:29:05;;;;;;;1.60;1.50;;;6.80;99.90;;;;;;5094056;28;20296;-77
2023/01/16 05:31:34;;;;;;;2.10;1.20;;;6.80;99.90;;;;;;5094546;28;20238;-76
2023/01/16 05:34:08;;;;;;;2.08;1.17;;;6.80;99.90;;;;;;5095372;28;20216;-76
2023/01/16 05:36:35;;;;;;;3.20;1.52;;;6.80;99.90;;;;;;5092951;28;20668;-77
2023/01/16 05:39:02;;;;;;;2.10;1.17;;;6.80;99.90;;;;;;5095120;28;20231;-79
2023/01/16 05:41:30;;;;;;;2.92;1.23;;;6.80;99.90;;;;;;5094411;28;20231;-77
2023/01/16 05:43:57;;;;;;;4.22;1.52;;;6.80;99.90;;;;;;5093147;28;20226;-77
2023/01/16 05:46:24;;;;;;;3.63;1.77;;;6.80;99.90;;;;;;5093856;28;20303;-78
2023/01/16 05:48:52;;;;;;;2.28;1.35;;;6.80;99.90;;;;;;5094238;28;20219;-79
2023/01/16 05:51:19;;;;;;;2.55;1.58;;;6.80;99.90;;;;;;5095054;28;20250;-79
2023/01/16 05:53:50;;;;;;;2.30;1.60;;;6.70;99.90;;;;;;5094423;28;20270;-77
2023/01/16 05:56:21;;;;;;;2.60;1.40;;;6.70;99.90;;;;;;5094414;28;20300;-79
2023/01/16 05:58:47;;;;;;;2.95;1.40;;;6.70;99.90;;;;;;5093456;28;20227;-79
2023/01/16 06:01:14;;;;;;;2.88;1.33;;;6.70;99.90;;;;;;5094675;28;20227;-77
2023/01/16 06:03:41;;;;;;;4.20;1.55;;;6.70;99.90;;;;;;5093834;28;20611;-79
2023/01/16 06:06:10;;;;;;;4.32;1.40;;;6.70;99.90;;;;;;5094310;28;20300;-77
2023/01/16 06:08:37;;;;;;;1.30;1.20;;;6.70;99.90;;;;;;5093736;28;20227;-76
2023/01/16 06:11:06;;;;;;;1.45;1.15;;;6.70;99.90;;;;;;5094372;28;20255;-79
2023/01/16 06:13:34;;;;;;;2.30;1.10;;;6.80;99.90;;;;;;5094097;28;20311;-76
2023/01/16 06:16:01;;;;;;;1.50;1.40;;;6.80;99.90;;;;;;5093425;28;20223;-78
2023/01/16 06:18:28;;;;;;;4.15;1.30;;;6.90;99.90;;;;;;5094365;28;20257;-76
2023/01/16 06:20:55;;;;;;;4.57;1.50;;;6.90;99.90;;;;;;5093671;28;20701;-78
2023/01/16 06:23:24;;;;;;;1.85;1.60;;;6.90;99.90;;;;;;5095639;28;20621;-76
2023/01/16 06:25:51;;;;;;;2.78;1.42;;;6.90;99.90;;;;;;5094208;28;20223;-77
2023/01/16 06:28:29;;;;;;;5.32;1.40;;;6.90;99.90;;;;;;5094529;28;20689;-78
2023/01/16 06:30:56;;;;;;;1.58;1.25;;;7.00;99.90;;;;;;5094628;28;20238;-76
2023/01/16 06:33:24;;;;;;;2.17;1.50;;;7.00;99.90;;;;;;5093814;28;20230;-77
2023/01/16 06:35:51;;;;;;;3.83;1.70;;;7.00;99.90;;;;;;5093438;28;20302;-77
2023/01/16 06:38:18;;;;;;;4.95;1.30;;;6.90;99.90;;;;;;5102568;28;20246;-79
2023/01/16 06:40:47;;;;;;;4.65;1.77;;;7.00;99.90;;;;;;5100826;28;20248;-80
2023/01/16 06:43:15;;;;;;;4.22;1.33;;;7.00;99.90;;;;;;5101880;28;20296;-79
2023/01/16 06:45:46;;;;;;;2.30;1.58;;;7.00;99.90;;;;;;5104229;28;20223;-79
2023/01/16 06:48:16;;;;;;;3.60;1.67;;;7.00;99.90;;;;;;5106575;28;20215;-78
2023/01/16 06:50:45;;;;;;;1.48;1.38;;;7.10;99.90;;;;;;5104563;28;20234;-77
2023/01/16 06:53:13;;;;;;;2.35;1.58;;;7.10;99.90;;;;;;5104414;28;20242;-76
2023/01/16 06:55:41;;;;;;;1.92;1.50;;;7.10;99.90;;;;;;5095133;28;20227;-77
2023/01/16 06:58:11;;;;;;;2.60;1.90;;;7.10;99.90;;;;;;5114128;28;20218;-76
2023/01/16 07:00:41;;;;;;;4.75;1.95;;;7.00;99.90;;;;;;5121004;28;20223;-79
2023/01/16 07:03:08;;;;;;;4.38;1.70;;;7.10;99.90;;;;;;5123066;27;20214;-79
2023/01/16 07:05:35;;;;;;;1.95;1.70;;;7.10;99.90;;;;;;5121226;27;20226;-79
2023/01/16 07:08:03;;;;;;;2.85;1.50;;;7.10;99.90;;;;;;5118500;28;20218;-77
2023/01/16 07:10:33;;;;;;;1.65;1.55;;;7.10;99.90;;;;;;5123669;28;20221;-77
2023/01/16 07:13:02;;;;;;;1.80;1.60;;;7.10;99.90;;;;;;5132366;28;20221;-78
2023/01/16 07:23:52;;;;;;;3.05;1.30;;;7.10;99.90;;;;;;5094071;28;20234;-77
2023/01/16 07:26:21;;;;;;;2.80;1.88;;;7.10;99.90;;;;;;5103362;28;20249;-78
2023/01/16 07:28:51;;;;;;;2.72;2.08;;;7.10;99.90;;;;;;5095678;28;20253;-80
2023/01/16 07:31:19;;;;;;;3.80;2.00;;;7.10;99.90;;;;;;5094262;28;20219;-77
2023/01/16 07:33:47;;;;;;;4.03;1.55;;;7.20;99.90;;;;;;5096058;28;20677;-77
2023/01/16 07:36:14;;;;;;;3.35;1.85;;;7.10;99.90;;;;;;5100879;28;20219;-79
2023/01/16 07:38:41;;;;;;;2.42;1.42;;;7.10;99.90;;;;;;5095199;28;20223;-79
2023/01/16 07:41:09;;;;;;;2.30;1.65;;;7.00;99.90;;;;;;5097316;28;20241;-79
2023/01/16 07:43:36;;;;;;;2.90;2.00;;;7.00;99.90;;;;;;5094947;28;20219;-78
2023/01/16 07:46:04;;;;;;;2.13;1.25;;;7.00;99.90;;;;;;5093870;28;20245;-77
2023/01/16 07:48:32;;;;;;;2.88;1.70;;;7.00;99.90;;;;;;5092672;28;20237;-77
2023/01/16 07:51:00;;;;;;;3.22;1.95;;;7.00;99.90;;;;;;5093348;28;20225;-78
2023/01/16 07:53:33;;;;;;;3.80;1.75;;;7.00;99.90;;;;;;5092216;28;20231;-77
2023/01/16 07:56:03;;;;;;;6.25;1.88;;;7.00;99.90;;;;;;5094465;28;20261;-80
2023/01/16 07:58:31;;;;;;;6.47;1.92;;;7.00;99.90;;;;;;5093014;28;20663;-79
2023/01/16 08:00:58;;;;;;;3.08;2.05;;;7.00;99.90;;;;;;5094927;28;20689;-80
2023/01/16 08:03:27;;;;;;;2.28;1.55;;;6.90;99.90;;;;;;5094550;28;20623;-77
2023/01/16 08:05:58;;;;;;;2.40;1.77;;;6.90;99.90;;;;;;5093853;28;20230;-77
2023/01/16 08:08:26;;;;;;;3.28;1.83;;;6.90;99.90;;;;;;5096977;28;20310;-80
2023/01/16 08:11:34;;;;;;;5.03;1.60;;;6.90;99.90;;;;;;5108007;28;20241;-80
2023/01/16 08:13:49;;;;;;;5.50;2.55;;;6.90;99.90;;;;;;5098073;28;20215;-77
2023/01/16 08:16:16;;;;;;;5.90;2.75;;;6.90;99.90;;;;;;5107639;28;20604;-77
2023/01/16 08:18:43;;;;;;;3.65;1.30;;;6.90;99.90;;;;;;5106413;28;20223;-79
2023/01/16 08:21:17;;;;;;;3.90;1.70;;;6.90;99.90;;;;;;5094362;28;20653;-77
2023/01/16 08:26:28;;;;;;;1.83;1.55;;;7.00;99.90;;;;;;5123384;27;20218;-79
2023/01/16 08:28:56;;;;;;;1.58;1.38;;;6.90;99.90;;;;;;5120864;28;20225;-80
2023/01/16 08:31:26;;;;;;;3.63;1.65;;;6.90;99.90;;;;;;5114026;28;20247;-80
2023/01/16 08:33:53;;;;;;;1.55;1.33;;;6.90;99.90;;;;;;5131995;28;20218;-80
2023/01/16 08:36:25;;;;;;;3.40;1.60;;;7.00;99.90;;;;;;5122954;27;20218;-77
2023/01/16 08:38:52;;;;;;;4.43;3.13;;;7.10;99.90;;;;;;5119253;28;20679;-79
2023/01/16 08:52:35;;;;;;;5.32;2.78;;;7.10;99.90;;;;;;5098554;28;20244;-79
2023/01/16 08:55:09;;;;;;;5.20;2.88;;;7.10;99.90;;;;;;5098712;28;20226;-80
2023/01/16 08:57:40;;;;;;;5.38;1.83;;;7.10;99.90;;;;;;5097989;28;20219;-77
2023/01/16 09:00:10;;;;;;;3.55;2.10;;;7.10;99.90;;;;;;5120061;27;20233;-77
2023/01/16 09:02:40;;;;;;;5.15;2.10;;;7.00;99.90;;;;;;5117536;28;20231;-80
2023/01/16 09:05:10;;;;;;;2.10;1.65;;;7.10;99.90;;;;;;5120502;27;20230;-80
2023/01/16 09:07:39;;;;;;;2.10;1.60;;;7.10;99.90;;;;;;5117207;28;20226;-78
2023/01/16 09:10:10;;;;;;;4.28;1.52;;;7.10;99.90;;;;;;5117212;28;20223;-77
2023/01/16 09:15:22;;;;;;;4.68;2.60;;;7.20;99.90;;;;;;5098128;28;20534;-78
2023/01/16 09:17:50;;;;;;;5.75;3.60;;;7.20;99.90;;;;;;5096071;28;20676;-79
2023/01/16 09:20:20;;;;;;;3.05;1.90;;;7.20;99.90;;;;;;5096912;28;20314;-79
2023/01/16 09:22:49;;;;;;;2.97;2.25;;;7.20;99.90;;;;;;5095248;28;20235;-77
2023/01/16 09:25:16;;;;;;;4.45;2.40;;;7.30;99.90;;;;;;5096533;28;20288;-80
2023/01/16 09:27:51;;;;;;;2.60;1.80;;;7.30;99.90;;;;;;5087570;28;20230;-79
2023/01/16 09:30:18;;;;;;;3.90;1.88;;;7.20;99.90;;;;;;5097822;28;20241;-80
2023/01/16 09:32:47;;;;;;;2.72;1.45;;;7.20;99.90;;;;;;5097775;28;20222;-78
2023/01/16 09:35:15;;;;;;;6.00;2.30;;;7.30;99.90;;;;;;5096182;28;20246;-79
2023/01/16 09:37:48;;;;;;;3.22;1.80;;;7.30;99.90;;;;;;5106113;28;20665;-77
2023/01/16 09:40:20;;;;;;;5.72;2.05;;;7.30;99.90;;;;;;5096294;28;20270;-78
2023/01/16 09:45:58;;;;;;;1.80;1.58;;;7.30;99.90;;;;;;5094390;28;20233;-79
2023/01/16 09:48:30;;;;;;;1.75;1.60;;;7.40;99.90;;;;;;5094947;28;20227;-79
2023/01/16 09:51:02;;;;;;;4.32;2.00;;;7.40;99.90;;;;;;5094320;28;20554;-79
2023/01/16 09:59:27;;;;;;;4.50;2.60;;;7.50;99.90;;;;;;5110632;28;20240;-79
2023/01/16 10:01:58;;;;;;;3.22;2.00;;;7.60;99.90;;;;;;5095072;28;20294;-77
2023/01/16 10:04:28;;;;;;;2.05;1.73;;;7.60;99.90;;;;;;5114522;27;20230;-76
2023/01/16 10:07:22;;;;;;;3.45;1.63;;;7.70;99.90;;;;;;5114731;28;20215;-79
2023/01/16 10:10:01;;;;;;;2.80;1.60;;;7.60;99.90;;;;;;5113994;28;20235;-79
2023/01/16 10:12:34;;;;;;;2.25;1.40;;;7.60;99.90;;;;;;5113966;28;20242;-76
2023/01/16 10:15:15;;;;;;;2.35;1.60;;;7.70;99.90;;;;;;5114227;28;20222;-77
2023/01/16 10:17:52;;;;;;;6.40;1.60;;;7.70;99.90;;;;;;5113866;27;20229;-79
2023/01/16 10:20:42;;;;;;;3.35;1.67;;;7.70;99.90;;;;;;5115337;28;20600;-77
2023/01/16 10:23:31;;;;;;;2.30;1.92;;;7.80;99.90;;;;;;5114525;28;20222;-78
2023/01/16 10:26:08;;;;;;;3.83;2.78;;;7.80;99.90;;;;;;5114226;27;20271;-80
2023/01/16 10:28:53;;;;;;;3.85;2.40;;;7.90;99.90;;;;;;5093624;28;20292;-79
2023/01/16 10:31:25;;;;;;;5.05;2.90;;;8.00;99.90;;;;;;5092898;28;20310;-77
2023/01/16 10:33:57;;;;;;;5.32;3.63;;;8.00;99.90;;;;;;5094323;28;20215;-78
2023/01/16 10:36:29;;;;;;;4.53;1.75;;;8.00;99.90;;;;;;5092918;28;20234;-76
2023/01/16 10:39:03;;;;;;;1.92;1.83;;;8.00;99.90;;;;;;5097898;28;20229;-79
2023/01/16 10:50:02;;;;;;;2.33;1.30;;;8.20;99.90;;;;;;5094430;28;20250;-80
2023/01/16 10:52:30;;;;;;;1.98;1.23;;;8.20;99.90;;;;;;5093651;28;20230;-80
2023/01/16 10:54:59;;;;;;;3.22;1.42;;;8.10;99.90;;;;;;5099831;28;20226;-78
2023/01/16 10:57:27;;;;;;;0.90;0.90;;;8.20;99.90;;;;;;5093304;28;20599;-80
2023/01/16 11:00:00;;;;;;;3.47;1.25;;;8.30;99.90;;;;;;5093329;28;20220;-77
2023/01/16 11:02:33;;;;;;;1.20;1.10;;;8.40;99.90;;;;;;5093075;28;20249;-80
2023/01/16 11:05:01;;;;;;;1.50;1.40;;;8.30;99.90;;;;;;5094144;28;20289;-78
2023/01/16 11:07:30;;;;;;;2.50;1.23;;;8.40;99.90;;;;;;5092319;28;20234;-79
2023/01/16 11:09:59;;;;;;;23.10;9.20;;;8.40;99.90;;;;;;5092824;28;20676;-78
2023/01/16 11:18:30;;;;;;;4.03;1.83;;;8.60;99.90;;;;;;5083735;28;20356;-77
2023/01/16 11:21:00;;;;;;;3.75;1.30;;;8.60;99.90;;;;;;5113199;28;20226;-77
2023/01/16 11:23:34;;;;;;;4.50;1.38;;;8.70;99.90;;;;;;5113943;28;20242;-80
2023/01/16 11:26:02;;;;;;;1.73;1.33;;;8.70;99.90;;;;;;5113167;28;20222;-80
2023/01/16 11:28:31;;;;;;;1.85;1.65;;;8.70;99.90;;;;;;5112855;28;20308;-77
2023/01/16 11:31:03;;;;;;;2.95;1.25;;;8.80;99.90;;;;;;5111865;28;20231;-77
2023/01/16 11:33:41;;;;;;;1.20;1.10;;;8.80;99.90;;;;;;5113468;28;20276;-77
2023/01/16 11:36:12;;;;;;;4.00;1.20;;;8.80;99.90;;;;;;5112805;28;20563;-79
2023/01/16 11:38:46;;;;;;;2.80;1.20;;;8.80;99.90;;;;;;5113328;28;20740;-79
2023/01/16 11:41:19;;;;;;;1.75;1.15;;;8.80;99.90;;;;;;5104312;28;20255;-77
2023/01/16 11:46:50;;;;;;;2.28;1.17;;;8.80;99.90;;;;;;5117333;28;20228;-77
2023/01/16 11:49:20;;;;;;;1.92;1.38;;;8.80;99.90;;;;;;5116914;28;20230;-77
2023/01/16 11:51:53;;;;;;;1.40;1.30;;;8.80;99.90;;;;;;5106179;28;20664;-79
2023/01/16 11:54:24;;;;;;;1.33;1.23;;;8.90;99.90;;;;;;5117070;27;20245;-77
2023/01/16 11:57:02;;;;;;;2.35;1.30;;;8.90;99.90;;;;;;5116487;28;20252;-77
2023/01/16 11:59:53;;;;;;;2.30;1.10;;;8.90;99.90;;;;;;5117216;28;20757;-77
2023/01/16 12:02:47;;;;;;;3.03;1.33;;;9.00;99.90;;;;;;5116361;28;20219;-78
2023/01/16 12:08:22;;;;;;;1.65;1.15;;;9.00;99.90;;;;;;5117038;28;20352;-77
2023/01/16 12:10:57;;;;;;;2.45;2.25;;;9.00;99.90;;;;;;5116180;28;20224;-77
2023/01/16 12:16:28;;;;;;;1.20;1.10;;;9.10;99.90;;;;;;5116482;28;20659;-79
2023/01/16 12:19:13;;;;;;;1.65;1.20;;;9.10;99.90;;;;;;5116553;28;20303;-79
2023/01/16 12:21:52;;;;;;;2.00;1.23;;;9.10;99.90;;;;;;5116983;28;20225;-79
2023/01/16 12:24:28;;;;;;;3.85;1.63;;;9.10;99.90;;;;;;5117371;28;20246;-77
2023/01/16 12:27:08;;;;;;;2.47;1.50;;;9.10;99.90;;;;;;5095334;28;20517;-77
2023/01/16 12:29:48;;;;;;;3.20;1.90;;;9.10;99.90;;;;;;5116224;28;20226;-79
2023/01/16 12:32:28;;;;;;;3.17;1.58;;;9.20;99.90;;;;;;5116279;28;20635;-79
2023/01/16 12:35:26;;;;;;;6.88;2.78;;;9.20;99.90;;;;;;5116226;27;20257;-78
2023/01/16 12:38:13;;;;;;;3.25;1.95;;;9.20;99.90;;;;;;5115565;27;20301;-78
2023/01/16 12:43:58;;;;;;;3.85;1.48;;;9.20;99.30;;;;;;5115825;28;20299;-77
2023/01/16 12:46:35;;;;;;;2.97;1.30;;;9.30;99.60;;;;;;5115305;28;20222;-77
2023/01/16 12:49:26;;;;;;;3.80;1.45;;;9.30;99.60;;;;;;5099003;27;20240;-77
2023/01/16 12:52:07;;;;;;;3.05;1.60;;;9.30;99.80;;;;;;5117777;28;20215;-77
2023/01/16 12:54:48;;;;;;;3.88;1.85;;;9.30;99.80;;;;;;5115496;27;20222;-76
2023/01/16 12:57:39;;;;;;;3.35;1.40;;;9.40;99.90;;;;;;5117323;28;20289;-77
2023/01/16 13:00:13;;;;;;;7.57;2.30;;;9.40;99.90;;;;;;5116313;28;20314;-76
2023/01/16 13:02:44;;;;;;;5.00;1.83;;;9.40;99.80;;;;;;5116909;27;20305;-79
2023/01/16 13:05:18;;;;;;;8.75;1.70;;;9.40;99.80;;;;;;5116345;28;20227;-76
2023/01/16 13:07:52;;;;;;;2.45;1.98;;;9.40;99.80;;;;;;5116561;28;20283;-76
2023/01/16 13:13:24;;;;;;;2.30;2.10;;;9.40;99.70;;;;;;5096387;28;20241;-77
2023/01/16 13:16:00;;;;;;;2.45;1.67;;;9.40;99.80;;;;;;5115670;27;20268;-77
2023/01/16 13:18:29;;;;;;;4.97;2.55;;;9.40;99.90;;;;;;5115240;27;20229;-79
2023/01/16 13:21:02;;;;;;;1.88;1.40;;;9.40;99.40;;;;;;5104021;27;20699;-77
2023/01/16 13:23:34;;;;;;;2.90;1.40;;;9.40;99.10;;;;;;5104828;28;20219;-77
2023/01/16 13:26:03;;;;;;;4.20;1.83;;;9.40;99.10;;;;;;5114776;28;20222;-76
2023/01/16 13:28:47;;;;;;;5.32;2.70;;;9.30;99.20;;;;;;5114587;28;20633;-78
2023/01/16 13:31:21;;;;;;;3.08;2.20;;;9.30;99.20;;;;;;5105000;28;20245;-78
2023/01/16 13:33:56;;;;;;;1.90;1.20;;;9.30;99.20;;;;;;5114653;28;20664;-77
2023/01/16 13:37:09;;;;;;;3.15;2.35;;;9.30;99.00;;;;;;5106328;28;20226;-80
2023/01/16 13:45:47;;;;;;;6.00;1.80;;;9.20;99.10;;;;;;5036350;28;20269;-79
2023/01/16 13:45:49;;;;;;;3.53;1.42;;;9.20;98.80;;;;;;5094823;28;20223;-78
2023/01/16 13:48:19;;;;;;;2.38;1.70;;;9.20;98.70;;;;;;5094078;28;20650;-77
2023/01/16 13:50:58;;;;;;;2.70;1.33;;;9.20;98.80;;;;;;5095011;28;20247;-78
2023/01/16 13:53:26;;;;;;;3.60;1.63;;;9.20;98.90;;;;;;5115274;28;20657;-78
2023/01/16 13:56:04;;;;;;;4.20;1.65;;;9.10;98.40;;;;;;5115664;28;20354;-79
2023/01/16 13:58:41;;;;;;;1.92;1.65;;;9.10;98.40;;;;;;5095329;28;20215;-77
2023/01/16 14:01:29;;;;;;;4.05;1.58;;;9.10;98.30;;;;;;5095138;28;20306;-79
2023/01/16 14:04:30;;;;;;;2.47;1.70;;;9.10;98.30;;;;;;5096349;28;20243;-79
2023/01/16 14:10:15;;;;;;;2.88;1.40;;;9.10;98.40;;;;;;5115504;28;20626;-77
2023/01/16 14:18:43;;;;;;;3.55;1.40;;;9.10;98.10;;;;;;5116154;28;20678;-78
2023/01/16 14:21:20;;;;;;;2.80;1.58;;;9.10;98.20;;;;;;5114064;28;20229;-78
2023/01/16 14:24:02;;;;;;;2.28;1.40;;;9.10;98.30;;;;;;5115330;28;20601;-78
2023/01/16 14:26:44;;;;;;;1.92;1.33;;;9.10;98.40;;;;;;5114440;27;20749;-78
2023/01/16 14:29:21;;;;;;;3.20;1.55;;;9.10;98.50;;;;;;5115732;28;20326;-78
2023/01/16 14:32:01;;;;;;;2.03;1.50;;;9.00;98.70;;;;;;5114637;27;20290;-80
2023/01/16 14:34:36;;;;;;;1.80;1.45;;;9.00;98.90;;;;;;5114287;28;20282;-77
2023/01/16 14:37:06;;;;;;;2.15;1.42;;;9.00;99.10;;;;;;5121215;27;20254;-80
2023/01/16 14:39:35;;;;;;;3.15;1.70;;;9.00;99.60;;;;;;5115996;28;20269;-76
2023/01/16 14:56:54;;;;;;;1.95;1.60;;;8.60;99.90;;;;;;5116403;28;20225;-77